sensor_id;sensor_type;location;lat;lon;timestamp;P1;durP1;ratioP1;P2;durP2;ratioP2
9094;SDS011;4583;49.796;9.902;2022-07-21T00:08:04;11.70;;;8.30;;
9094;SDS011;4583;49.796;9.902;2022-07-21T00:18:06;12.17;;;8.47;;
9094;SDS011;4583;49.796;9.902;2022-07-21T00:28:08;13.43;;;8.43;;
9094;SDS011;4583;49.796;9.902;2022-07-21T00:38:10;12.87;;;8.87;;
9094;SDS011;4583;49.796;9.902;2022-07-21T00:48:11;12.47;;;9.17;;
9094;SDS011;4583;49.796;9.902;2022-07-21T00:58:13;13.03;;;9.67;;
9094;SDS011;4583;49.796;9.902;2022-07-21T01:08:15;13.00;;;10.17;;
9094;SDS011;4583;49.796;9.902;2022-07-21T01:18:17;13.30;;;9.10;;
9094;SDS011;4583;49.796;9.902;2022-07-21T01:28:19;15.47;;;9.67;;
9094;SDS011;4583;49.796;9.902;2022-07-21T01:38:21;12.73;;;9.80;;
9094;SDS011;4583;49.796;9.902;2022-07-21T01:48:42;14.20;;;9.70;;
9094;SDS011;4583;49.796;9.902;2022-07-21T01:58:44;13.50;;;10.27;;
9094;SDS011;4583;49.796;9.902;2022-07-21T02:08:46;15.70;;;11.57;;
9094;SDS011;4583;49.796;9.902;2022-07-21T02:18:47;15.30;;;11.30;;
9094;SDS011;4583;49.796;9.902;2022-07-21T02:28:50;15.60;;;11.40;;
9094;SDS011;4583;49.796;9.902;2022-07-21T02:38:52;14.80;;;12.00;;
9094;SDS011;4583;49.796;9.902;2022-07-21T02:48:55;13.90;;;11.60;;
9094;SDS011;4583;49.796;9.902;2022-07-21T02:58:57;14.57;;;10.47;;
9094;SDS011;4583;49.796;9.902;2022-07-21T03:08:58;13.47;;;10.40;;
9094;SDS011;4583;49.796;9.902;2022-07-21T03:19:00;13.40;;;9.80;;
9094;SDS011;4583;49.796;9.902;2022-07-21T03:29:02;12.00;;;9.40;;
9094;SDS011;4583;49.796;9.902;2022-07-21T03:39:04;11.70;;;9.40;;
9094;SDS011;4583;49.796;9.902;2022-07-21T03:49:06;13.53;;;9.73;;
9094;SDS011;4583;49.796;9.902;2022-07-21T03:59:07;16.03;;;10.30;;
9094;SDS011;4583;49.796;9.902;2022-07-21T04:09:09;16.13;;;12.00;;
9094;SDS011;4583;49.796;9.902;2022-07-21T04:19:11;14.27;;;11.70;;
9094;SDS011;4583;49.796;9.902;2022-07-21T04:29:13;14.73;;;12.87;;
9094;SDS011;4583;49.796;9.902;2022-07-21T04:39:15;18.13;;;12.73;;
9094;SDS011;4583;49.796;9.902;2022-07-21T04:49:16;17.03;;;13.63;;
9094;SDS011;4583;49.796;9.902;2022-07-21T04:59:18;17.83;;;13.40;;
9094;SDS011;4583;49.796;9.902;2022-07-21T05:09:20;19.33;;;13.73;;
9094;SDS011;4583;49.796;9.902;2022-07-21T05:19:22;18.67;;;13.93;;
9094;SDS011;4583;49.796;9.902;2022-07-21T05:29:23;16.63;;;12.17;;
9094;SDS011;4583;49.796;9.902;2022-07-21T05:39:26;18.93;;;11.87;;
9094;SDS011;4583;49.796;9.902;2022-07-21T05:49:28;15.87;;;11.77;;
9094;SDS011;4583;49.796;9.902;2022-07-21T05:59:30;13.20;;;11.60;;
9094;SDS011;4583;49.796;9.902;2022-07-21T06:09:31;16.40;;;10.37;;
9094;SDS011;4583;49.796;9.902;2022-07-21T06:19:33;10.87;;;9.77;;
9094;SDS011;4583;49.796;9.902;2022-07-21T06:29:35;11.00;;;8.70;;
9094;SDS011;4583;49.796;9.902;2022-07-21T06:39:36;9.70;;;8.43;;
9094;SDS011;4583;49.796;9.902;2022-07-21T06:49:42;10.10;;;7.80;;
9094;SDS011;4583;49.796;9.902;2022-07-21T06:59:44;13.50;;;9.07;;
9094;SDS011;4583;49.796;9.902;2022-07-21T07:09:46;11.03;;;9.93;;
9094;SDS011;4583;49.796;9.902;2022-07-21T07:19:47;15.87;;;8.93;;
9094;SDS011;4583;49.796;9.902;2022-07-21T07:29:49;10.73;;;7.13;;
9094;SDS011;4583;49.796;9.902;2022-07-21T07:39:52;8.80;;;7.23;;
9094;SDS011;4583;49.796;9.902;2022-07-21T07:49:53;7.57;;;6.57;;
9094;SDS011;4583;49.796;9.902;2022-07-21T07:59:55;9.07;;;6.93;;
9094;SDS011;4583;49.796;9.902;2022-07-21T08:09:57;8.87;;;6.50;;
9094;SDS011;4583;49.796;9.902;2022-07-21T08:20:19;8.00;;;6.20;;
9094;SDS011;4583;49.796;9.902;2022-07-21T08:30:20;7.77;;;6.50;;
9094;SDS011;4583;49.796;9.902;2022-07-21T08:40:33;8.70;;;6.60;;
9094;SDS011;4583;49.796;9.902;2022-07-21T08:50:37;7.97;;;6.03;;
9094;SDS011;4583;49.796;9.902;2022-07-21T09:00:41;7.33;;;5.57;;
9094;SDS011;4583;49.796;9.902;2022-07-21T09:10:46;7.23;;;5.33;;
9094;SDS011;4583;49.796;9.902;2022-07-21T09:20:49;8.17;;;5.80;;
9094;SDS011;4583;49.796;9.902;2022-07-21T09:41:04;8.17;;;6.33;;
9094;SDS011;4583;49.796;9.902;2022-07-21T09:51:30;6.00;;;5.17;;
9094;SDS011;4583;49.796;9.902;2022-07-21T10:01:36;7.93;;;5.30;;
9094;SDS011;4583;49.796;9.902;2022-07-21T10:11:39;6.07;;;4.70;;
9094;SDS011;4583;49.796;9.902;2022-07-21T10:21:48;5.20;;;4.70;;
9094;SDS011;4583;49.796;9.902;2022-07-21T10:32:09;6.43;;;4.73;;
9094;SDS011;4583;49.796;9.902;2022-07-21T10:42:15;7.13;;;4.50;;
9094;SDS011;4583;49.796;9.902;2022-07-21T11:02:40;4.83;;;3.40;;
9094;SDS011;4583;49.796;9.902;2022-07-21T11:12:54;4.93;;;3.30;;
9094;SDS011;4583;49.796;9.902;2022-07-21T11:23:09;4.03;;;3.60;;
9094;SDS011;4583;49.796;9.902;2022-07-21T11:33:20;6.20;;;4.10;;
9094;SDS011;4583;49.796;9.902;2022-07-21T11:43:38;6.27;;;4.40;;
9094;SDS011;4583;49.796;9.902;2022-07-21T11:53:44;3.93;;;3.30;;
9094;SDS011;4583;49.796;9.902;2022-07-21T12:03:48;8.90;;;4.50;;
9094;SDS011;4583;49.796;9.902;2022-07-21T12:13:52;6.33;;;4.10;;
9094;SDS011;4583;49.796;9.902;2022-07-21T12:23:57;14.87;;;5.07;;
9094;SDS011;4583;49.796;9.902;2022-07-21T12:34:09;10.00;;;4.50;;
9094;SDS011;4583;49.796;9.902;2022-07-21T12:44:27;6.37;;;4.30;;
9094;SDS011;4583;49.796;9.902;2022-07-21T12:54:30;5.93;;;5.33;;
9094;SDS011;4583;49.796;9.902;2022-07-21T13:04:34;5.60;;;4.70;;
9094;SDS011;4583;49.796;9.902;2022-07-21T13:14:35;6.10;;;4.60;;
9094;SDS011;4583;49.796;9.902;2022-07-21T13:24:37;9.37;;;4.40;;
9094;SDS011;4583;49.796;9.902;2022-07-21T13:34:39;4.73;;;4.30;;
9094;SDS011;4583;49.796;9.902;2022-07-21T13:45:00;7.70;;;4.83;;
9094;SDS011;4583;49.796;9.902;2022-07-21T13:55:03;10.80;;;5.70;;
9094;SDS011;4583;49.796;9.902;2022-07-21T14:05:05;5.50;;;4.83;;
9094;SDS011;4583;49.796;9.902;2022-07-21T14:15:07;7.20;;;5.50;;
9094;SDS011;4583;49.796;9.902;2022-07-21T14:25:09;7.73;;;5.17;;
9094;SDS011;4583;49.796;9.902;2022-07-21T14:35:20;5.80;;;5.20;;
9094;SDS011;4583;49.796;9.902;2022-07-21T14:45:23;7.50;;;5.53;;
9094;SDS011;4583;49.796;9.902;2022-07-21T14:55:25;6.85;;;4.80;;
9094;SDS011;4583;49.796;9.902;2022-07-21T15:05:29;7.13;;;5.43;;
9094;SDS011;4583;49.796;9.902;2022-07-21T15:15:31;8.10;;;5.47;;
9094;SDS011;4583;49.796;9.902;2022-07-21T15:25:34;7.13;;;5.33;;
9094;SDS011;4583;49.796;9.902;2022-07-21T15:35:35;7.07;;;6.03;;
9094;SDS011;4583;49.796;9.902;2022-07-21T15:45:37;10.50;;;5.33;;
9094;SDS011;4583;49.796;9.902;2022-07-21T15:55:39;7.70;;;5.30;;
9094;SDS011;4583;49.796;9.902;2022-07-21T16:05:48;7.47;;;5.37;;
9094;SDS011;4583;49.796;9.902;2022-07-21T16:15:50;11.00;;;5.57;;
9094;SDS011;4583;49.796;9.902;2022-07-21T16:25:52;5.40;;;4.90;;
9094;SDS011;4583;49.796;9.902;2022-07-21T16:35:54;8.98;;;5.10;;
9094;SDS011;4583;49.796;9.902;2022-07-21T16:45:56;6.00;;;5.15;;
9094;SDS011;4583;49.796;9.902;2022-07-21T16:55:58;9.07;;;5.90;;
9094;SDS011;4583;49.796;9.902;2022-07-21T17:06:00;12.27;;;5.50;;
9094;SDS011;4583;49.796;9.902;2022-07-21T17:16:02;10.17;;;5.13;;
9094;SDS011;4583;49.796;9.902;2022-07-21T17:26:06;6.27;;;5.47;;
9094;SDS011;4583;49.796;9.902;2022-07-21T17:36:08;6.67;;;5.20;;
9094;SDS011;4583;49.796;9.902;2022-07-21T17:46:14;8.97;;;6.27;;
9094;SDS011;4583;49.796;9.902;2022-07-21T17:56:16;6.37;;;5.30;;
9094;SDS011;4583;49.796;9.902;2022-07-21T18:06:18;7.70;;;5.33;;
9094;SDS011;4583;49.796;9.902;2022-07-21T18:16:21;6.77;;;5.00;;
9094;SDS011;4583;49.796;9.902;2022-07-21T18:26:23;7.20;;;5.40;;
9094;SDS011;4583;49.796;9.902;2022-07-21T18:36:24;8.87;;;5.60;;
9094;SDS011;4583;49.796;9.902;2022-07-21T18:46:26;5.87;;;5.00;;
9094;SDS011;4583;49.796;9.902;2022-07-21T18:56:28;7.67;;;5.17;;
9094;SDS011;4583;49.796;9.902;2022-07-21T19:06:30;5.90;;;4.67;;
9094;SDS011;4583;49.796;9.902;2022-07-21T19:16:32;8.43;;;4.83;;
9094;SDS011;4583;49.796;9.902;2022-07-21T19:26:33;6.30;;;5.63;;
9094;SDS011;4583;49.796;9.902;2022-07-21T19:36:35;10.07;;;5.90;;
9094;SDS011;4583;49.796;9.902;2022-07-21T19:46:37;7.30;;;5.60;;
9094;SDS011;4583;49.796;9.902;2022-07-21T19:56:39;10.33;;;5.70;;
9094;SDS011;4583;49.796;9.902;2022-07-21T20:06:41;8.37;;;5.63;;
9094;SDS011;4583;49.796;9.902;2022-07-21T20:16:43;7.67;;;5.70;;
9094;SDS011;4583;49.796;9.902;2022-07-21T20:26:45;7.10;;;5.90;;
9094;SDS011;4583;49.796;9.902;2022-07-21T20:36:47;6.63;;;5.97;;
9094;SDS011;4583;49.796;9.902;2022-07-21T20:46:48;7.37;;;6.27;;
9094;SDS011;4583;49.796;9.902;2022-07-21T20:56:50;7.70;;;6.37;;
9094;SDS011;4583;49.796;9.902;2022-07-21T21:07:12;6.95;;;6.00;;
9094;SDS011;4583;49.796;9.902;2022-07-21T21:17:13;10.20;;;6.70;;
9094;SDS011;4583;49.796;9.902;2022-07-21T21:27:15;9.47;;;6.17;;
9094;SDS011;4583;49.796;9.902;2022-07-21T21:37:17;10.83;;;6.00;;
9094;SDS011;4583;49.796;9.902;2022-07-21T21:47:18;8.23;;;6.37;;
9094;SDS011;4583;49.796;9.902;2022-07-21T21:57:20;9.13;;;6.63;;
9094;SDS011;4583;49.796;9.902;2022-07-21T22:07:22;8.47;;;6.63;;
9094;SDS011;4583;49.796;9.902;2022-07-21T22:17:23;7.40;;;6.60;;
9094;SDS011;4583;49.796;9.902;2022-07-21T22:27:25;8.13;;;7.00;;
9094;SDS011;4583;49.796;9.902;2022-07-21T22:37:27;8.87;;;6.90;;
9094;SDS011;4583;49.796;9.902;2022-07-21T22:47:29;7.83;;;7.00;;
9094;SDS011;4583;49.796;9.902;2022-07-21T22:57:30;12.63;;;7.10;;
9094;SDS011;4583;49.796;9.902;2022-07-21T23:07:32;8.77;;;6.77;;
9094;SDS011;4583;49.796;9.902;2022-07-21T23:17:34;10.60;;;7.33;;
9094;SDS011;4583;49.796;9.902;2022-07-21T23:27:36;8.57;;;6.87;;
9094;SDS011;4583;49.796;9.902;2022-07-21T23:37:38;9.63;;;6.43;;
9094;SDS011;4583;49.796;9.902;2022-07-21T23:47:39;7.23;;;6.20;;
9094;SDS011;4583;49.796;9.902;2022-07-21T23:57:41;8.93;;;6.33;;
